sensor_id;sensor_type;location;lat;lon;timestamp;pressure;altitude;pressure_sealevel;temperature;humidity
25350;BME280;13302;48.796;11.978;2022-11-15T00:02:55;96791.59;;;7.74;34.32
25350;BME280;13302;48.796;11.978;2022-11-15T00:06:02;96793.88;;;7.72;34.36
25350;BME280;13302;48.796;11.978;2022-11-15T00:09:08;96796.16;;;7.70;34.33
25350;BME280;13302;48.796;11.978;2022-11-15T00:12:13;96797.63;;;7.67;34.24
25350;BME280;13302;48.796;11.978;2022-11-15T00:15:19;96791.28;;;7.67;34.22
25350;BME280;13302;48.796;11.978;2022-11-15T00:18:24;96786.16;;;7.65;34.35
25350;BME280;13302;48.796;11.978;2022-11-15T00:21:30;96785.66;;;7.63;34.45
25350;BME280;13302;48.796;11.978;2022-11-15T00:24:35;96775.00;;;7.62;34.49
25350;BME280;13302;48.796;11.978;2022-11-15T00:27:41;96773.06;;;7.62;34.36
25350;BME280;13302;48.796;11.978;2022-11-15T00:30:46;96787.16;;;7.61;34.27
25350;BME280;13302;48.796;11.978;2022-11-15T00:33:52;96778.41;;;7.59;34.38
25350;BME280;13302;48.796;11.978;2022-11-15T00:36:57;96782.63;;;7.56;34.38
25350;BME280;13302;48.796;11.978;2022-11-15T00:40:03;96786.19;;;7.57;34.50
25350;BME280;13302;48.796;11.978;2022-11-15T00:43:09;96783.44;;;7.57;34.36
25350;BME280;13302;48.796;11.978;2022-11-15T00:46:15;96771.97;;;7.55;34.43
25350;BME280;13302;48.796;11.978;2022-11-15T00:49:20;96778.28;;;7.55;34.58
25350;BME280;13302;48.796;11.978;2022-11-15T00:52:26;96770.03;;;7.55;34.32
25350;BME280;13302;48.796;11.978;2022-11-15T00:55:31;96770.81;;;7.56;34.42
25350;BME280;13302;48.796;11.978;2022-11-15T00:58:37;96772.78;;;7.55;34.28
25350;BME280;13302;48.796;11.978;2022-11-15T01:01:42;96771.16;;;7.54;34.23
25350;BME280;13302;48.796;11.978;2022-11-15T01:04:48;96770.69;;;7.52;34.02
25350;BME280;13302;48.796;11.978;2022-11-15T01:07:57;96765.06;;;7.49;34.28
25350;BME280;13302;48.796;11.978;2022-11-15T01:11:05;96761.50;;;7.48;34.08
25350;BME280;13302;48.796;11.978;2022-11-15T01:14:11;96754.38;;;7.47;34.09
25350;BME280;13302;48.796;11.978;2022-11-15T01:17:16;96753.56;;;7.47;34.05
25350;BME280;13302;48.796;11.978;2022-11-15T01:20:21;96751.50;;;7.44;34.02
25350;BME280;13302;48.796;11.978;2022-11-15T01:23:27;96751.03;;;7.42;34.22
25350;BME280;13302;48.796;11.978;2022-11-15T01:26:33;96749.41;;;7.41;34.38
25350;BME280;13302;48.796;11.978;2022-11-15T01:29:39;96738.06;;;7.42;34.24
25350;BME280;13302;48.796;11.978;2022-11-15T01:32:45;96733.25;;;7.39;33.93
25350;BME280;13302;48.796;11.978;2022-11-15T01:35:50;96731.63;;;7.38;34.04
25350;BME280;13302;48.796;11.978;2022-11-15T01:38:57;96729.53;;;7.35;34.15
25350;BME280;13302;48.796;11.978;2022-11-15T01:42:03;96729.06;;;7.33;33.89
25350;BME280;13302;48.796;11.978;2022-11-15T01:45:15;96721.13;;;7.31;34.03
25350;BME280;13302;48.796;11.978;2022-11-15T01:48:24;96708.06;;;7.28;34.04
25350;BME280;13302;48.796;11.978;2022-11-15T01:51:32;96705.31;;;7.28;34.07
25350;BME280;13302;48.796;11.978;2022-11-15T01:54:39;96705.31;;;7.28;34.17
25350;BME280;13302;48.796;11.978;2022-11-15T01:57:46;96707.25;;;7.28;34.13
25350;BME280;13302;48.796;11.978;2022-11-15T02:00:53;96705.63;;;7.27;34.02
25350;BME280;13302;48.796;11.978;2022-11-15T02:04:04;96701.59;;;7.24;34.07
25350;BME280;13302;48.796;11.978;2022-11-15T02:07:15;96698.38;;;7.22;33.95
25350;BME280;13302;48.796;11.978;2022-11-15T02:10:23;96697.56;;;7.22;34.21
25350;BME280;13302;48.796;11.978;2022-11-15T02:13:29;96690.00;;;7.19;34.04
25350;BME280;13302;48.796;11.978;2022-11-15T02:16:49;96689.53;;;7.17;34.19
25350;BME280;13302;48.796;11.978;2022-11-15T02:44:17;96653.03;;;7.08;34.34
25350;BME280;13302;48.796;11.978;2022-11-15T02:47:27;96654.66;;;7.09;34.20
25350;BME280;13302;48.796;11.978;2022-11-15T02:50:35;96654.66;;;7.09;34.01
25350;BME280;13302;48.796;11.978;2022-11-15T02:53:40;96653.03;;;7.08;33.81
25350;BME280;13302;48.796;11.978;2022-11-15T02:56:46;96652.91;;;7.04;33.79
25350;BME280;13302;48.796;11.978;2022-11-15T03:06:53;96648.59;;;6.95;34.00
25350;BME280;13302;48.796;11.978;2022-11-15T03:19:54;96649.25;;;6.91;33.83
25350;BME280;13302;48.796;11.978;2022-11-15T03:23:05;96651.22;;;6.91;34.07
25350;BME280;13302;48.796;11.978;2022-11-15T03:26:14;96653.16;;;6.90;33.92
25350;BME280;13302;48.796;11.978;2022-11-15T03:29:24;96646.03;;;6.89;34.03
25350;BME280;13302;48.796;11.978;2022-11-15T03:32:35;96655.41;;;6.88;34.17
25350;BME280;13302;48.796;11.978;2022-11-15T03:35:44;96654.63;;;6.88;33.81
25350;BME280;13302;48.796;11.978;2022-11-15T03:38:54;96645.56;;;6.87;33.91
25350;BME280;13302;48.796;11.978;2022-11-15T03:42:12;96651.06;;;6.87;33.86
25350;BME280;13302;48.796;11.978;2022-11-15T03:45:26;96643.16;;;6.86;33.85
25350;BME280;13302;48.796;11.978;2022-11-15T03:48:39;96648.19;;;6.84;33.96
25350;BME280;13302;48.796;11.978;2022-11-15T03:51:47;96650.94;;;6.84;33.96
25350;BME280;13302;48.796;11.978;2022-11-15T03:54:55;96643.81;;;6.83;33.74
25350;BME280;13302;48.796;11.978;2022-11-15T03:58:01;96637.84;;;6.81;33.80
25350;BME280;13302;48.796;11.978;2022-11-15T04:01:07;96626.72;;;6.77;33.77
25350;BME280;13302;48.796;11.978;2022-11-15T04:04:12;96629.00;;;6.75;33.81
25350;BME280;13302;48.796;11.978;2022-11-15T04:07:18;96632.06;;;6.74;33.90
25350;BME280;13302;48.796;11.978;2022-11-15T04:10:24;96621.41;;;6.72;33.62
25350;BME280;13302;48.796;11.978;2022-11-15T04:13:30;96617.38;;;6.70;33.86
25350;BME280;13302;48.796;11.978;2022-11-15T04:16:36;96619.31;;;6.69;33.71
25350;BME280;13302;48.796;11.978;2022-11-15T04:19:47;96619.66;;;6.68;33.57
25350;BME280;13302;48.796;11.978;2022-11-15T04:23:20;96614.00;;;6.64;33.72
25350;BME280;13302;48.796;11.978;2022-11-15T04:26:45;96612.75;;;6.62;33.76
25350;BME280;13302;48.796;11.978;2022-11-15T04:29:51;96618.09;;;6.58;33.55
25350;BME280;13302;48.796;11.978;2022-11-15T04:32:56;96621.97;;;6.57;33.69
25350;BME280;13302;48.796;11.978;2022-11-15T04:36:02;96618.41;;;6.57;33.95
25350;BME280;13302;48.796;11.978;2022-11-15T04:39:26;96627.78;;;6.56;34.05
25350;BME280;13302;48.796;11.978;2022-11-15T04:42:32;96621.16;;;6.57;34.19
25350;BME280;13302;48.796;11.978;2022-11-15T04:45:38;96615.34;;;6.58;34.06
25350;BME280;13302;48.796;11.978;2022-11-15T04:48:43;96611.13;;;6.61;33.77
25350;BME280;13302;48.796;11.978;2022-11-15T04:51:49;96608.38;;;6.61;33.84
25350;BME280;13302;48.796;11.978;2022-11-15T04:54:54;96611.13;;;6.61;33.80
25350;BME280;13302;48.796;11.978;2022-11-15T04:58:02;96602.44;;;6.59;33.78
25350;BME280;13302;48.796;11.978;2022-11-15T05:01:11;96610.97;;;6.57;33.67
25350;BME280;13302;48.796;11.978;2022-11-15T05:04:19;96592.44;;;6.54;33.80
25350;BME280;13302;48.796;11.978;2022-11-15T05:07:24;96592.44;;;6.54;33.83
25350;BME280;13302;48.796;11.978;2022-11-15T05:10:30;96590.34;;;6.51;33.92
25350;BME280;13302;48.796;11.978;2022-11-15T05:13:36;96590.69;;;6.50;33.74
25350;BME280;13302;48.796;11.978;2022-11-15T05:16:42;96589.41;;;6.47;33.80
25350;BME280;13302;48.796;11.978;2022-11-15T05:19:48;96591.66;;;6.45;33.73
25350;BME280;13302;48.796;11.978;2022-11-15T05:22:54;96587.31;;;6.44;33.87
25350;BME280;13302;48.796;11.978;2022-11-15T05:26:03;96583.75;;;6.43;33.87
25350;BME280;13302;48.796;11.978;2022-11-15T05:29:14;96578.25;;;6.43;33.79
25350;BME280;13302;48.796;11.978;2022-11-15T05:32:20;96573.56;;;6.44;33.94
25350;BME280;13302;48.796;11.978;2022-11-15T05:35:34;96573.13;;;6.42;33.82
25350;BME280;13302;48.796;11.978;2022-11-15T05:38:43;96573.13;;;6.42;33.68
25350;BME280;13302;48.796;11.978;2022-11-15T05:41:55;96569.41;;;6.38;33.86
25350;BME280;13302;48.796;11.978;2022-11-15T05:45:06;96569.41;;;6.38;33.86
25350;BME280;13302;48.796;11.978;2022-11-15T05:48:14;96571.69;;;6.36;33.75
25350;BME280;13302;48.796;11.978;2022-11-15T05:51:21;96571.22;;;6.34;33.66
25350;BME280;13302;48.796;11.978;2022-11-15T05:54:28;96566.03;;;6.32;33.68
25350;BME280;13302;48.796;11.978;2022-11-15T05:57:36;96562.03;;;6.30;33.70
25350;BME280;13302;48.796;11.978;2022-11-15T06:00:42;96560.72;;;6.27;33.64
25350;BME280;13302;48.796;11.978;2022-11-15T06:03:49;96564.63;;;6.26;33.89
25350;BME280;13302;48.796;11.978;2022-11-15T06:06:55;96561.09;;;6.26;33.91
25350;BME280;13302;48.796;11.978;2022-11-15T06:10:01;96559.16;;;6.26;33.76
25350;BME280;13302;48.796;11.978;2022-11-15T06:13:06;96546.22;;;6.27;33.78
25350;BME280;13302;48.796;11.978;2022-11-15T06:16:12;96552.50;;;6.27;33.85
25350;BME280;13302;48.796;11.978;2022-11-15T06:19:18;96555.25;;;6.27;33.84
25350;BME280;13302;48.796;11.978;2022-11-15T06:22:24;96558.00;;;6.27;33.84
25350;BME280;13302;48.796;11.978;2022-11-15T06:25:30;96552.84;;;6.26;33.66
25350;BME280;13302;48.796;11.978;2022-11-15T06:28:36;96557.22;;;6.27;33.97
25350;BME280;13302;48.796;11.978;2022-11-15T06:31:41;96555.59;;;6.26;33.85
25350;BME280;13302;48.796;11.978;2022-11-15T06:34:47;96551.72;;;6.27;33.91
25350;BME280;13302;48.796;11.978;2022-11-15T06:37:53;96561.09;;;6.26;33.66
25350;BME280;13302;48.796;11.978;2022-11-15T06:41:08;96558.66;;;6.24;33.87
25350;BME280;13302;48.796;11.978;2022-11-15T06:44:13;96564.97;;;6.25;33.83
25350;BME280;13302;48.796;11.978;2022-11-15T06:47:19;96565.28;;;6.23;33.90
25350;BME280;13302;48.796;11.978;2022-11-15T06:50:24;96566.09;;;6.24;33.76
25350;BME280;13302;48.796;11.978;2022-11-15T06:53:31;96560.59;;;6.24;33.87
25350;BME280;13302;48.796;11.978;2022-11-15T06:56:38;96575.94;;;6.25;33.91
25350;BME280;13302;48.796;11.978;2022-11-15T06:59:43;96569.97;;;6.23;34.20
25350;BME280;13302;48.796;11.978;2022-11-15T07:02:49;96573.19;;;6.25;34.21
25350;BME280;13302;48.796;11.978;2022-11-15T07:05:56;96567.69;;;6.25;34.19
25350;BME280;13302;48.796;11.978;2022-11-15T07:09:11;96574.47;;;6.27;34.30
25350;BME280;13302;48.796;11.978;2022-11-15T07:12:16;96576.44;;;6.27;34.32
25350;BME280;13302;48.796;11.978;2022-11-15T07:15:25;96576.44;;;6.27;34.48
25350;BME280;13302;48.796;11.978;2022-11-15T07:18:31;96567.03;;;6.28;34.33
25350;BME280;13302;48.796;11.978;2022-11-15T07:21:38;96562.34;;;6.28;34.66
25350;BME280;13302;48.796;11.978;2022-11-15T07:24:44;96562.03;;;6.30;34.78
25350;BME280;13302;48.796;11.978;2022-11-15T07:27:57;96556.69;;;6.33;34.89
25350;BME280;13302;48.796;11.978;2022-11-15T07:31:04;96554.88;;;6.37;34.88
25350;BME280;13302;48.796;11.978;2022-11-15T07:34:09;96563.25;;;6.41;34.96
25350;BME280;13302;48.796;11.978;2022-11-15T07:37:15;96554.03;;;6.45;35.32
25350;BME280;13302;48.796;11.978;2022-11-15T07:40:22;96553.03;;;6.50;35.04
25350;BME280;13302;48.796;11.978;2022-11-15T07:43:28;96546.56;;;6.55;35.12
25350;BME280;13302;48.796;11.978;2022-11-15T07:46:35;96547.16;;;6.60;35.11
25350;BME280;13302;48.796;11.978;2022-11-15T07:49:41;96542.28;;;6.66;35.22
25350;BME280;13302;48.796;11.978;2022-11-15T07:52:46;96535.09;;;6.73;35.31
25350;BME280;13302;48.796;11.978;2022-11-15T07:55:52;96539.28;;;6.79;35.19
25350;BME280;13302;48.796;11.978;2022-11-15T07:58:58;96535.66;;;6.87;35.34
25350;BME280;13302;48.796;11.978;2022-11-15T08:02:04;96536.41;;;6.97;35.38
25350;BME280;13302;48.796;11.978;2022-11-15T08:05:10;96540.22;;;7.04;35.48
25350;BME280;13302;48.796;11.978;2022-11-15T08:08:16;96540.16;;;7.13;35.46
25350;BME280;13302;48.796;11.978;2022-11-15T08:11:22;96543.59;;;7.22;35.87
25350;BME280;13302;48.796;11.978;2022-11-15T08:14:28;96544.22;;;7.27;35.88
25350;BME280;13302;48.796;11.978;2022-11-15T08:17:33;96548.06;;;7.35;36.01
25350;BME280;13302;48.796;11.978;2022-11-15T08:20:40;96553.81;;;7.42;35.97
25350;BME280;13302;48.796;11.978;2022-11-15T08:23:46;96544.22;;;7.48;36.00
25350;BME280;13302;48.796;11.978;2022-11-15T08:26:52;96544.47;;;7.55;36.04
25350;BME280;13302;48.796;11.978;2022-11-15T08:29:58;96546.69;;;7.62;35.61
25350;BME280;13302;48.796;11.978;2022-11-15T08:33:04;96537.53;;;7.70;35.70
25350;BME280;13302;48.796;11.978;2022-11-15T08:36:14;96523.88;;;7.73;35.94
25350;BME280;13302;48.796;11.978;2022-11-15T08:39:20;96519.75;;;7.79;35.96
25350;BME280;13302;48.796;11.978;2022-11-15T08:42:25;96517.94;;;7.83;36.02
25350;BME280;13302;48.796;11.978;2022-11-15T08:45:33;96510.25;;;7.89;35.86
25350;BME280;13302;48.796;11.978;2022-11-15T08:48:39;96514.75;;;7.94;36.07
25350;BME280;13302;48.796;11.978;2022-11-15T08:51:44;96505.47;;;7.98;35.91
25350;BME280;13302;48.796;11.978;2022-11-15T08:54:50;96515.44;;;8.03;36.04
25350;BME280;13302;48.796;11.978;2022-11-15T08:57:57;96511.69;;;8.07;36.53
25350;BME280;13302;48.796;11.978;2022-11-15T09:01:03;96503.53;;;8.11;36.33
25350;BME280;13302;48.796;11.978;2022-11-15T09:04:09;96492.25;;;8.16;36.30
25350;BME280;13302;48.796;11.978;2022-11-15T09:07:15;96488.03;;;8.18;36.65
25350;BME280;13302;48.796;11.978;2022-11-15T09:10:22;96485.88;;;8.24;36.69
25350;BME280;13302;48.796;11.978;2022-11-15T09:13:28;96485.16;;;8.27;36.70
25350;BME280;13302;48.796;11.978;2022-11-15T09:16:33;96483.31;;;8.31;36.68
25350;BME280;13302;48.796;11.978;2022-11-15T09:19:39;96485.06;;;8.36;37.09
25350;BME280;13302;48.796;11.978;2022-11-15T09:22:44;96487.09;;;8.39;37.20
25350;BME280;13302;48.796;11.978;2022-11-15T09:25:50;96492.38;;;8.44;37.17
25350;BME280;13302;48.796;11.978;2022-11-15T09:28:56;96488.94;;;8.47;37.32
25350;BME280;13302;48.796;11.978;2022-11-15T09:32:02;96484.38;;;8.51;37.26
25350;BME280;13302;48.796;11.978;2022-11-15T09:35:08;96480.56;;;8.55;37.43
25350;BME280;13302;48.796;11.978;2022-11-15T09:38:14;96482.28;;;8.60;37.39
25350;BME280;13302;48.796;11.978;2022-11-15T09:51:41;96464.31;;;8.78;37.39
25350;BME280;13302;48.796;11.978;2022-11-15T09:54:37;96471.53;;;8.83;37.55
25350;BME280;13302;48.796;11.978;2022-11-15T09:57:54;96459.47;;;8.87;37.77
25350;BME280;13302;48.796;11.978;2022-11-15T10:00:47;96450.16;;;8.92;37.65
25350;BME280;13302;48.796;11.978;2022-11-15T10:03:38;96434.19;;;8.97;37.69
25350;BME280;13302;48.796;11.978;2022-11-15T10:06:30;96432.41;;;9.05;37.91
25350;BME280;13302;48.796;11.978;2022-11-15T10:09:24;96430.19;;;9.10;37.70
25350;BME280;13302;48.796;11.978;2022-11-15T10:12:13;96424.91;;;9.17;38.19
25350;BME280;13302;48.796;11.978;2022-11-15T10:15:09;96408.88;;;9.23;38.06
25350;BME280;13302;48.796;11.978;2022-11-15T10:18:12;96396.88;;;9.31;38.68
25350;BME280;13302;48.796;11.978;2022-11-15T10:21:20;96404.19;;;9.39;38.23
25350;BME280;13302;48.796;11.978;2022-11-15T10:24:12;96398.16;;;9.49;38.27
25350;BME280;13302;48.796;11.978;2022-11-15T10:27:00;96394.09;;;9.59;38.50
25350;BME280;13302;48.796;11.978;2022-11-15T10:29:49;96380.22;;;9.71;38.49
25350;BME280;13302;48.796;11.978;2022-11-15T10:32:36;96378.16;;;9.84;38.78
25350;BME280;13302;48.796;11.978;2022-11-15T10:35:29;96363.06;;;9.97;38.88
25350;BME280;13302;48.796;11.978;2022-11-15T10:38:16;96357.88;;;10.11;38.98
25350;BME280;13302;48.796;11.978;2022-11-15T10:41:07;96351.88;;;10.25;38.43
25350;BME280;13302;48.796;11.978;2022-11-15T10:47:24;96346.69;;;10.58;38.65
25350;BME280;13302;48.796;11.978;2022-11-15T10:50:31;96341.91;;;10.74;38.52
25350;BME280;13302;48.796;11.978;2022-11-15T10:53:31;96336.34;;;10.93;38.45
25350;BME280;13302;48.796;11.978;2022-11-15T10:56:21;96331.22;;;11.15;38.29
25350;BME280;13302;48.796;11.978;2022-11-15T10:59:16;96326.41;;;11.34;38.38
25350;BME280;13302;48.796;11.978;2022-11-15T11:02:36;96323.75;;;11.61;37.84
25350;BME280;13302;48.796;11.978;2022-11-15T11:05:39;96314.22;;;11.84;37.82
25350;BME280;13302;48.796;11.978;2022-11-15T11:08:28;96317.31;;;12.06;37.35
25350;BME280;13302;48.796;11.978;2022-11-15T11:11:16;96306.44;;;12.23;37.46
25350;BME280;13302;48.796;11.978;2022-11-15T11:14:16;96309.78;;;12.36;37.15
25350;BME280;13302;48.796;11.978;2022-11-15T11:17:31;96317.94;;;12.52;37.10
25350;BME280;13302;48.796;11.978;2022-11-15T11:20:39;96314.19;;;12.67;37.01
25350;BME280;13302;48.796;11.978;2022-11-15T11:23:54;96302.88;;;12.82;36.91
25350;BME280;13302;48.796;11.978;2022-11-15T11:27:13;96297.91;;;12.99;36.59
25350;BME280;13302;48.796;11.978;2022-11-15T11:33:17;96295.38;;;13.23;35.87
25350;BME280;13302;48.796;11.978;2022-11-15T11:49:01;96264.13;;;13.77;35.97
25350;BME280;13302;48.796;11.978;2022-11-15T11:52:10;96265.78;;;13.89;35.56
25350;BME280;13302;48.796;11.978;2022-11-15T11:55:19;96262.66;;;13.98;35.82
25350;BME280;13302;48.796;11.978;2022-11-15T11:58:17;96259.91;;;14.05;35.51
25350;BME280;13302;48.796;11.978;2022-11-15T12:01:27;96250.47;;;14.13;35.59
25350;BME280;13302;48.796;11.978;2022-11-15T12:04:36;96240.97;;;14.17;35.36
25350;BME280;13302;48.796;11.978;2022-11-15T12:07:29;96244.56;;;14.25;35.21
25350;BME280;13302;48.796;11.978;2022-11-15T12:10:23;96233.88;;;14.27;35.19
25350;BME280;13302;48.796;11.978;2022-11-15T12:13:21;96229.88;;;14.28;34.97
25350;BME280;13302;48.796;11.978;2022-11-15T12:16:17;96221.16;;;14.30;35.36
25350;BME280;13302;48.796;11.978;2022-11-15T12:19:07;96220.75;;;14.28;35.00
25350;BME280;13302;48.796;11.978;2022-11-15T12:22:00;96218.38;;;14.26;35.04
25350;BME280;13302;48.796;11.978;2022-11-15T12:25:06;96210.38;;;14.21;35.42
25350;BME280;13302;48.796;11.978;2022-11-15T12:28:08;96202.41;;;14.16;35.50
25350;BME280;13302;48.796;11.978;2022-11-15T12:31:11;96206.00;;;14.13;35.38
25350;BME280;13302;48.796;11.978;2022-11-15T12:34:02;96191.25;;;14.09;35.22
25350;BME280;13302;48.796;11.978;2022-11-15T12:36:53;96192.41;;;14.04;35.54
25350;BME280;13302;48.796;11.978;2022-11-15T12:43:10;96193.16;;;13.91;35.74
25350;BME280;13302;48.796;11.978;2022-11-15T12:52:10;96193.06;;;13.76;35.59
25350;BME280;13302;48.796;11.978;2022-11-15T12:54:59;96190.66;;;13.71;35.75
25350;BME280;13302;48.796;11.978;2022-11-15T12:57:46;96190.63;;;13.68;36.03
25350;BME280;13302;48.796;11.978;2022-11-15T13:03:24;96185.03;;;13.57;36.23
25350;BME280;13302;48.796;11.978;2022-11-15T13:06:37;96182.22;;;13.54;36.33
25350;BME280;13302;48.796;11.978;2022-11-15T13:21:24;96160.72;;;13.44;36.66
25350;BME280;13302;48.796;11.978;2022-11-15T13:24:30;96167.88;;;13.41;36.37
25350;BME280;13302;48.796;11.978;2022-11-15T13:27:18;96167.44;;;13.39;36.27
25350;BME280;13302;48.796;11.978;2022-11-15T13:30:14;96168.63;;;13.38;36.53
25350;BME280;13302;48.796;11.978;2022-11-15T13:33:13;96169.41;;;13.39;36.48
25350;BME280;13302;48.796;11.978;2022-11-15T13:36:18;96167.81;;;13.38;36.52
25350;BME280;13302;48.796;11.978;2022-11-15T13:39:23;96168.22;;;13.36;36.85
25350;BME280;13302;48.796;11.978;2022-11-15T13:42:18;96165.03;;;13.38;36.85
25350;BME280;13302;48.796;11.978;2022-11-15T13:45:15;96154.72;;;13.38;36.92
25350;BME280;13302;48.796;11.978;2022-11-15T13:48:03;96158.72;;;13.41;37.14
25350;BME280;13302;48.796;11.978;2022-11-15T13:50:50;96163.88;;;13.42;36.88
25350;BME280;13302;48.796;11.978;2022-11-15T13:53:42;96162.31;;;13.41;37.21
25350;BME280;13302;48.796;11.978;2022-11-15T13:56:31;96147.66;;;13.44;36.96
25350;BME280;13302;48.796;11.978;2022-11-15T13:59:30;96145.25;;;13.46;37.22
25350;BME280;13302;48.796;11.978;2022-11-15T14:02:21;96143.28;;;13.47;37.13
25350;BME280;13302;48.796;11.978;2022-11-15T14:05:19;96141.31;;;13.47;36.91
25350;BME280;13302;48.796;11.978;2022-11-15T14:11:16;96144.88;;;13.48;36.98
25350;BME280;13302;48.796;11.978;2022-11-15T14:16:59;96129.03;;;13.48;37.12
25350;BME280;13302;48.796;11.978;2022-11-15T14:19:47;96123.88;;;13.50;36.77
25350;BME280;13302;48.796;11.978;2022-11-15T14:22:34;96127.06;;;13.49;36.65
25350;BME280;13302;48.796;11.978;2022-11-15T14:25:29;96124.66;;;13.47;36.98
25350;BME280;13302;48.796;11.978;2022-11-15T14:28:30;96118.69;;;13.45;36.94
25350;BME280;13302;48.796;11.978;2022-11-15T14:31:19;96117.91;;;13.45;36.79
25350;BME280;13302;48.796;11.978;2022-11-15T14:34:08;96111.13;;;13.42;36.83
25350;BME280;13302;48.796;11.978;2022-11-15T14:36:55;96107.97;;;13.40;36.53
25350;BME280;13302;48.796;11.978;2022-11-15T14:39:43;96107.16;;;13.40;36.74
25350;BME280;13302;48.796;11.978;2022-11-15T14:42:31;96106.72;;;13.38;36.65
25350;BME280;13302;48.796;11.978;2022-11-15T14:45:21;96104.75;;;13.38;36.79
25350;BME280;13302;48.796;11.978;2022-11-15T14:48:08;96100.00;;;13.39;36.79
25350;BME280;13302;48.796;11.978;2022-11-15T14:50:56;96104.00;;;13.41;36.87
25350;BME280;13302;48.796;11.978;2022-11-15T14:53:44;96107.97;;;13.40;36.83
25350;BME280;13302;48.796;11.978;2022-11-15T14:56:32;96100.44;;;13.41;36.88
25350;BME280;13302;48.796;11.978;2022-11-15T14:59:19;96098.44;;;13.41;36.92
25350;BME280;13302;48.796;11.978;2022-11-15T15:02:19;96092.91;;;13.41;37.13
25350;BME280;13302;48.796;11.978;2022-11-15T15:05:29;96093.69;;;13.42;36.90
25350;BME280;13302;48.796;11.978;2022-11-15T15:08:17;96097.66;;;13.44;37.00
25350;BME280;13302;48.796;11.978;2022-11-15T15:11:10;96088.16;;;13.42;37.02
25350;BME280;13302;48.796;11.978;2022-11-15T15:14:00;96090.13;;;13.41;37.19
25350;BME280;13302;48.796;11.978;2022-11-15T15:16:48;96087.72;;;13.40;37.06
25350;BME280;13302;48.796;11.978;2022-11-15T15:19:35;96088.50;;;13.37;37.18
25350;BME280;13302;48.796;11.978;2022-11-15T15:22:22;96087.31;;;13.38;37.04
25350;BME280;13302;48.796;11.978;2022-11-15T15:25:26;96082.94;;;13.33;37.06
25350;BME280;13302;48.796;11.978;2022-11-15T15:28:14;96084.13;;;13.32;36.91
25350;BME280;13302;48.796;11.978;2022-11-15T15:31:02;96080.50;;;13.28;36.46
25350;BME280;13302;48.796;11.978;2022-11-15T15:33:49;96080.84;;;13.23;36.52
25350;BME280;13302;48.796;11.978;2022-11-15T15:36:36;96077.25;;;13.19;36.46
25350;BME280;13302;48.796;11.978;2022-11-15T15:39:23;96073.28;;;13.13;36.21
25350;BME280;13302;48.796;11.978;2022-11-15T15:42:10;96075.19;;;13.05;35.68
25350;BME280;13302;48.796;11.978;2022-11-15T15:44:57;96069.97;;;12.97;35.51
25350;BME280;13302;48.796;11.978;2022-11-15T15:47:45;96067.94;;;12.86;35.48
25350;BME280;13302;48.796;11.978;2022-11-15T15:50:34;96070.22;;;12.74;35.49
25350;BME280;13302;48.796;11.978;2022-11-15T15:53:21;96078.81;;;12.62;35.85
25350;BME280;13302;48.796;11.978;2022-11-15T15:56:08;96075.56;;;12.53;35.25
25350;BME280;13302;48.796;11.978;2022-11-15T15:58:56;96080.63;;;12.43;35.85
25350;BME280;13302;48.796;11.978;2022-11-15T16:01:43;96078.94;;;12.35;35.85
25350;BME280;13302;48.796;11.978;2022-11-15T16:04:30;96080.47;;;12.29;35.75
25350;BME280;13302;48.796;11.978;2022-11-15T16:07:21;96087.53;;;12.23;35.61
25350;BME280;13302;48.796;11.978;2022-11-15T16:10:23;96085.13;;;12.18;35.77
25350;BME280;13302;48.796;11.978;2022-11-15T16:13:14;96090.22;;;12.13;35.33
25350;BME280;13302;48.796;11.978;2022-11-15T16:16:01;96079.81;;;12.06;35.39
25350;BME280;13302;48.796;11.978;2022-11-15T16:18:48;96072.59;;;11.94;35.47
25350;BME280;13302;48.796;11.978;2022-11-15T16:21:35;96065.81;;;11.88;35.72
25350;BME280;13302;48.796;11.978;2022-11-15T16:24:22;96073.66;;;11.83;35.43
25350;BME280;13302;48.796;11.978;2022-11-15T16:27:17;96066.06;;;11.76;35.42
25350;BME280;13302;48.796;11.978;2022-11-15T16:30:07;96054.53;;;11.71;35.16
25350;BME280;13302;48.796;11.978;2022-11-15T16:32:57;96046.13;;;11.64;35.44
25350;BME280;13302;48.796;11.978;2022-11-15T16:35:45;96066.22;;;11.57;35.17
25350;BME280;13302;48.796;11.978;2022-11-15T16:38:32;96070.47;;;11.51;35.40
25350;BME280;13302;48.796;11.978;2022-11-15T16:41:20;96075.16;;;11.47;35.62
25350;BME280;13302;48.796;11.978;2022-11-15T16:44:07;96076.28;;;11.42;35.22
25350;BME280;13302;48.796;11.978;2022-11-15T16:46:55;96063.94;;;11.36;35.29
25350;BME280;13302;48.796;11.978;2022-11-15T16:49:42;96062.69;;;11.30;35.43
25350;BME280;13302;48.796;11.978;2022-11-15T16:52:31;96067.75;;;11.25;35.74
25350;BME280;13302;48.796;11.978;2022-11-15T16:55:19;96066.88;;;11.21;35.89
25350;BME280;13302;48.796;11.978;2022-11-15T16:58:08;96070.41;;;11.18;35.38
25350;BME280;13302;48.796;11.978;2022-11-15T17:00:56;96068.75;;;11.13;35.51
25350;BME280;13302;48.796;11.978;2022-11-15T17:03:43;96072.28;;;11.10;35.55
25350;BME280;13302;48.796;11.978;2022-11-15T17:06:30;96075.81;;;11.07;35.32
25350;BME280;13302;48.796;11.978;2022-11-15T17:09:20;96073.34;;;11.02;34.95
25350;BME280;13302;48.796;11.978;2022-11-15T17:12:10;96076.44;;;10.97;34.99
25350;BME280;13302;48.796;11.978;2022-11-15T17:14:57;96068.44;;;10.92;35.23
25350;BME280;13302;48.796;11.978;2022-11-15T17:17:50;96056.50;;;10.84;35.00
25350;BME280;13302;48.796;11.978;2022-11-15T17:20:39;96050.13;;;10.80;34.84
25350;BME280;13302;48.796;11.978;2022-11-15T17:23:26;96047.31;;;10.77;35.10
25350;BME280;13302;48.796;11.978;2022-11-15T17:26:14;96045.28;;;10.74;34.96
25350;BME280;13302;48.796;11.978;2022-11-15T17:29:21;96049.16;;;10.69;35.12
25350;BME280;13302;48.796;11.978;2022-11-15T17:32:08;96042.78;;;10.65;35.16
25350;BME280;13302;48.796;11.978;2022-11-15T17:34:55;96040.78;;;10.62;34.91